Atlantic, North Carolina
Current Conditions -  °F | °C
As of 8:56 PM on Monday 22 Dec 2014 (Local Time) from KNBT Reporting Station
NA  
Wind Chill: 51°   Ceiling: NA
Heat Index: 51°   Visibility: NA
Dew Point: 48°   Wind: 12mph
Humidity: 89%   Direction: 320°NW
Pressure: 30"   Gusts: NA
Location:  34.89°N, 76.34°W
Report Text: KNBT 230156Z AUTO 32010KT 11/09 A3000 RMK AO2 SLP163 T01060089 PNO $
Loading
Personal Weather Stations






























Interactive Weather Map New forecast layout! Learn more

10-Day Weather Forecast

Advertisements
Track Severe Weather on mobile